Time;durP1;ratioP1;P1;durP2;ratioP2;P2;SDS_P1;SDS_P2;PMS_P1;PMS_P2;Temp;Humidity;BMP_temperature;BMP_pressure;BME280_temperature;BME280_humidity;BME280_pressure;Samples;Min_cycle;Max_cycle;Signal;HPM_P1;HPM_P2
2023/10/30 00:00:26;;;;;;;2.72;1.25;;;10.70;99.90;;;;;;5080493;28;20052;-90
2023/10/30 00:02:51;;;;;;;2.55;1.10;;;10.70;99.90;;;;;;5081766;28;20044;-89
2023/10/30 00:05:17;;;;;;;5.10;1.60;;;10.70;99.90;;;;;;5096664;28;20052;-88
2023/10/30 00:07:43;;;;;;;1.63;1.30;;;10.70;99.90;;;;;;5097836;28;20048;-89
2023/10/30 00:10:09;;;;;;;6.72;1.60;;;10.70;99.90;;;;;;5096833;28;20048;-89
2023/10/30 00:12:35;;;;;;;4.55;1.40;;;10.70;99.90;;;;;;5081300;28;20127;-92
2023/10/30 00:15:03;;;;;;;5.68;1.48;;;10.70;99.90;;;;;;5080670;28;20427;-91
2023/10/30 00:17:30;;;;;;;3.63;1.63;;;10.60;99.90;;;;;;5097210;28;20130;-89
2023/10/30 00:19:56;;;;;;;4.00;1.77;;;10.60;99.90;;;;;;5098286;28;20048;-88
2023/10/30 00:22:22;;;;;;;5.75;2.20;;;10.60;99.90;;;;;;5079384;28;20129;-91
2023/10/30 00:24:47;;;;;;;7.65;1.60;;;10.60;99.90;;;;;;5097906;28;20504;-90
2023/10/30 00:27:16;;;;;;;7.07;1.55;;;10.50;99.90;;;;;;5096962;28;20056;-88
2023/10/30 00:29:42;;;;;;;6.07;1.55;;;10.60;99.90;;;;;;5097394;28;20059;-88
2023/10/30 00:32:08;;;;;;;6.43;2.47;;;10.50;99.90;;;;;;5097674;28;20060;-89
2023/10/30 00:34:34;;;;;;;6.15;1.50;;;10.50;99.90;;;;;;5096877;28;20526;-88
2023/10/30 00:37:00;;;;;;;2.17;1.33;;;10.50;99.90;;;;;;5097238;28;20063;-88
2023/10/30 00:39:27;;;;;;;2.90;1.35;;;10.50;99.90;;;;;;5096762;28;20056;-89
2023/10/30 00:41:53;;;;;;;1.83;1.50;;;10.40;99.90;;;;;;5081318;28;20102;-89
2023/10/30 00:44:19;;;;;;;4.80;1.40;;;10.50;99.90;;;;;;5079706;28;20526;-88
2023/10/30 00:46:44;;;;;;;4.68;1.67;;;10.50;99.90;;;;;;5097343;28;20060;-89
2023/10/30 00:49:10;;;;;;;3.60;1.52;;;10.50;99.90;;;;;;5080007;28;20044;-91
2023/10/30 00:51:36;;;;;;;3.50;1.33;;;10.50;99.90;;;;;;5096384;28;20101;-89
2023/10/30 00:54:01;;;;;;;4.45;1.80;;;10.40;99.90;;;;;;5080640;28;20141;-89
2023/10/30 00:56:27;;;;;;;5.82;2.45;;;10.40;99.90;;;;;;5095876;28;20159;-88
2023/10/30 00:58:53;;;;;;;1.58;1.42;;;10.40;99.90;;;;;;5079975;28;20063;-87
2023/10/30 01:01:19;;;;;;;2.72;1.50;;;10.40;99.90;;;;;;5079520;28;20558;-88
2023/10/30 01:03:45;;;;;;;8.85;2.13;;;10.30;99.90;;;;;;5079965;28;20085;-88
2023/10/30 01:06:11;;;;;;;4.43;1.58;;;10.40;99.90;;;;;;5079376;28;20112;-89
2023/10/30 01:08:37;;;;;;;5.43;1.80;;;10.40;99.90;;;;;;5096696;28;20164;-88
2023/10/30 01:11:03;;;;;;;6.80;1.40;;;10.40;99.90;;;;;;5097325;28;20511;-89
2023/10/30 01:13:29;;;;;;;5.70;1.70;;;10.40;99.90;;;;;;5079551;28;20048;-87
2023/10/30 01:15:56;;;;;;;7.95;1.80;;;10.30;99.90;;;;;;5097715;28;20044;-91
2023/10/30 01:18:22;;;;;;;5.10;1.40;;;10.40;99.90;;;;;;5079205;28;20091;-91
2023/10/30 01:20:48;;;;;;;8.48;1.75;;;10.40;99.90;;;;;;5063788;28;20084;-91
2023/10/30 01:23:14;;;;;;;6.85;1.90;;;10.40;99.90;;;;;;5079852;28;20052;-91
2023/10/30 01:25:40;;;;;;;7.88;2.20;;;10.40;99.90;;;;;;5097226;28;20079;-92
2023/10/30 01:28:06;;;;;;;6.25;2.17;;;10.40;99.90;;;;;;5080802;28;20434;-88
2023/10/30 01:30:33;;;;;;;6.28;2.55;;;10.30;99.90;;;;;;5097440;28;20115;-92
2023/10/30 01:32:59;;;;;;;6.65;1.98;;;10.30;99.90;;;;;;5099408;28;20543;-90
2023/10/30 01:35:25;;;;;;;5.57;2.17;;;10.40;99.90;;;;;;5080340;28;20487;-91
2023/10/30 01:37:51;;;;;;;10.40;3.40;;;10.40;99.90;;;;;;5067758;28;20055;-89
2023/10/30 01:40:17;;;;;;;9.38;2.53;;;10.40;99.90;;;;;;5100374;28;20089;-89
2023/10/30 01:42:42;;;;;;;5.38;2.10;;;10.40;99.90;;;;;;5066737;28;20051;-89
2023/10/30 01:45:08;;;;;;;10.65;1.90;;;10.40;99.90;;;;;;5083500;28;20098;-89
2023/10/30 01:47:34;;;;;;;9.23;1.80;;;10.50;99.90;;;;;;5082775;28;20086;-92
2023/10/30 01:50:01;;;;;;;6.75;2.25;;;10.40;99.90;;;;;;5083997;28;20308;-91
2023/10/30 01:52:29;;;;;;;5.75;2.35;;;10.40;99.90;;;;;;5082816;28;20052;-89
2023/10/30 01:54:56;;;;;;;8.05;1.83;;;10.40;99.90;;;;;;5066680;28;20052;-90
2023/10/30 01:57:23;;;;;;;3.55;1.85;;;10.40;99.90;;;;;;5099798;28;20127;-91
2023/10/30 01:59:50;;;;;;;6.90;1.88;;;10.40;99.90;;;;;;5083020;28;20060;-90
2023/10/30 02:02:19;;;;;;;5.57;1.80;;;10.40;99.90;;;;;;5099680;28;20112;-89
2023/10/30 02:04:44;;;;;;;9.30;2.28;;;10.40;99.90;;;;;;5099021;28;20060;-89
2023/10/30 02:07:11;;;;;;;14.02;2.67;;;10.40;99.90;;;;;;5083776;28;20077;-89
2023/10/30 02:09:37;;;;;;;12.05;1.85;;;10.40;99.90;;;;;;5081388;28;20052;-89
2023/10/30 02:12:03;;;;;;;9.10;1.77;;;10.40;99.90;;;;;;5083180;28;20048;-92
2023/10/30 02:14:30;;;;;;;6.57;1.95;;;10.40;99.90;;;;;;5082104;28;20085;-88
2023/10/30 02:16:55;;;;;;;7.03;1.88;;;10.40;99.90;;;;;;5065733;28;20056;-89
2023/10/30 02:19:26;;;;;;;9.75;2.00;;;10.40;99.90;;;;;;5099352;28;20872;-88
2023/10/30 02:21:55;;;;;;;7.00;2.05;;;10.40;99.90;;;;;;5081952;28;20521;-89
2023/10/30 02:24:22;;;;;;;8.68;2.03;;;10.40;99.90;;;;;;5082983;28;20051;-88
2023/10/30 02:26:49;;;;;;;5.70;1.73;;;10.40;99.90;;;;;;5065217;28;20043;-90
2023/10/30 02:29:16;;;;;;;5.45;2.00;;;10.40;99.90;;;;;;5066479;28;20625;-90
2023/10/30 02:31:42;;;;;;;9.48;2.00;;;10.50;99.90;;;;;;5081820;28;20119;-90
2023/10/30 02:34:10;;;;;;;8.23;1.90;;;10.50;99.90;;;;;;5082368;28;20056;-89
2023/10/30 02:36:35;;;;;;;10.23;2.50;;;10.50;99.90;;;;;;5082590;28;20063;-90
2023/10/30 02:39:04;;;;;;;5.57;2.05;;;10.50;99.90;;;;;;5081517;28;20048;-89
2023/10/30 02:41:31;;;;;;;5.97;1.55;;;10.50;99.90;;;;;;5082728;28;20055;-88
2023/10/30 02:44:00;;;;;;;7.85;1.73;;;10.60;99.90;;;;;;5081362;28;20063;-90
2023/10/30 02:46:27;;;;;;;11.27;2.53;;;10.50;99.90;;;;;;5081910;28;20079;-89
2023/10/30 02:48:53;;;;;;;9.45;1.85;;;10.60;99.90;;;;;;5081184;28;20048;-89
2023/10/30 02:51:19;;;;;;;9.68;2.15;;;10.60;99.90;;;;;;5082462;28;20048;-89
2023/10/30 02:53:44;;;;;;;11.05;2.20;;;10.60;99.90;;;;;;5082342;28;20079;-90
2023/10/30 02:56:13;;;;;;;7.85;2.20;;;10.60;99.90;;;;;;5081440;28;20182;-89
2023/10/30 02:58:38;;;;;;;6.63;2.00;;;10.60;99.90;;;;;;5099847;28;20047;-90
2023/10/30 03:01:04;;;;;;;9.65;2.63;;;10.60;99.90;;;;;;5080645;28;20048;-90
2023/10/30 03:03:30;;;;;;;6.35;1.90;;;10.60;99.90;;;;;;5082775;28;20052;-89
2023/10/30 03:05:56;;;;;;;9.05;3.05;;;10.60;99.90;;;;;;5098394;28;20048;-89
2023/10/30 03:08:22;;;;;;;4.97;1.85;;;10.60;99.90;;;;;;5067874;28;20085;-90
2023/10/30 03:10:48;;;;;;;9.90;2.00;;;10.60;99.90;;;;;;5085333;28;20085;-89
2023/10/30 03:13:14;;;;;;;9.55;1.88;;;10.60;99.90;;;;;;5084643;28;20622;-89
2023/10/30 03:15:45;;;;;;;14.70;3.72;;;10.60;99.90;;;;;;5101888;28;20043;-90
2023/10/30 03:18:11;;;;;;;7.32;2.28;;;10.60;99.90;;;;;;5101035;28;20044;-90
2023/10/30 03:20:37;;;;;;;9.63;2.05;;;10.60;99.90;;;;;;5085471;28;20047;-90
2023/10/30 03:23:03;;;;;;;8.30;1.92;;;10.60;99.90;;;;;;5101493;28;20043;-88
2023/10/30 03:25:28;;;;;;;8.25;1.65;;;10.60;99.90;;;;;;5084837;28;20044;-89
2023/10/30 03:27:54;;;;;;;10.45;2.22;;;10.60;99.90;;;;;;5085063;28;20062;-88
2023/10/30 03:30:20;;;;;;;7.55;1.83;;;10.60;99.90;;;;;;5084096;28;20050;-90
2023/10/30 03:32:46;;;;;;;7.70;2.28;;;10.60;99.90;;;;;;5102670;28;20182;-89
2023/10/30 03:35:11;;;;;;;11.68;2.65;;;10.50;99.90;;;;;;5084129;28;20055;-89
2023/10/30 03:37:37;;;;;;;7.78;1.98;;;10.50;99.90;;;;;;5102843;28;20051;-90
2023/10/30 03:40:03;;;;;;;7.82;2.25;;;10.60;99.90;;;;;;5101416;28;20050;-89
2023/10/30 03:42:29;;;;;;;9.30;3.05;;;10.60;99.90;;;;;;5084809;28;20048;-88
2023/10/30 03:44:54;;;;;;;5.53;2.17;;;10.50;99.90;;;;;;5100930;28;20086;-90
2023/10/30 03:47:20;;;;;;;8.45;2.05;;;10.60;99.90;;;;;;5101266;28;20107;-89
2023/10/30 03:49:46;;;;;;;14.35;2.40;;;10.50;99.90;;;;;;5085423;28;20549;-89
2023/10/30 03:52:11;;;;;;;8.82;2.20;;;10.50;99.90;;;;;;5083504;28;20054;-89
2023/10/30 03:54:37;;;;;;;15.73;2.15;;;10.50;99.90;;;;;;5102050;28;20094;-89
2023/10/30 03:57:03;;;;;;;11.40;1.92;;;10.50;99.90;;;;;;5084860;28;20495;-89
2023/10/30 03:59:29;;;;;;;6.85;2.13;;;10.50;99.90;;;;;;5085671;28;20059;-88
2023/10/30 04:01:54;;;;;;;11.10;1.80;;;10.50;99.90;;;;;;5084368;28;20055;-89
2023/10/30 04:04:20;;;;;;;9.15;1.98;;;10.50;99.90;;;;;;5100932;28;20101;-90
2023/10/30 04:06:46;;;;;;;8.82;1.95;;;10.50;99.90;;;;;;5101758;28;20043;-89
2023/10/30 04:09:11;;;;;;;9.48;2.17;;;10.50;99.90;;;;;;5083206;28;20534;-89
2023/10/30 04:11:37;;;;;;;6.68;2.08;;;10.50;99.90;;;;;;5084757;28;20075;-89
2023/10/30 04:14:03;;;;;;;13.48;3.97;;;10.40;99.90;;;;;;5082942;28;20048;-90
2023/10/30 04:16:29;;;;;;;4.75;1.92;;;10.40;99.90;;;;;;5101745;28;20402;-89
2023/10/30 04:18:55;;;;;;;6.45;2.10;;;10.40;99.90;;;;;;5083979;28;20090;-89
2023/10/30 04:21:21;;;;;;;12.35;2.38;;;10.40;99.90;;;;;;5084405;28;20081;-90
2023/10/30 04:23:47;;;;;;;4.80;2.60;;;10.40;99.90;;;;;;5101245;28;20077;-89
2023/10/30 04:26:12;;;;;;;11.68;2.50;;;10.40;99.90;;;;;;5100446;28;20055;-89
2023/10/30 04:28:38;;;;;;;6.50;1.90;;;10.40;99.90;;;;;;5101442;28;20101;-88
2023/10/30 04:31:08;;;;;;;11.80;2.08;;;10.40;99.90;;;;;;5100080;28;20039;-89
2023/10/30 04:33:34;;;;;;;9.85;2.85;;;10.40;99.90;;;;;;5084490;28;20102;-89
2023/10/30 04:36:04;;;;;;;8.63;1.90;;;10.40;99.90;;;;;;5100363;28;20506;-89
2023/10/30 04:38:31;;;;;;;12.93;2.55;;;10.40;99.90;;;;;;5083764;28;20079;-90
2023/10/30 04:40:57;;;;;;;8.15;2.33;;;10.40;99.90;;;;;;5084015;28;20044;-91
2023/10/30 04:43:23;;;;;;;9.65;2.10;;;10.30;99.90;;;;;;5082884;28;20055;-88
2023/10/30 04:45:49;;;;;;;8.77;2.10;;;10.40;99.90;;;;;;5101496;28;20129;-89
2023/10/30 04:48:14;;;;;;;6.15;1.90;;;10.40;99.90;;;;;;5099878;28;20055;-89
2023/10/30 04:50:40;;;;;;;9.00;2.35;;;10.40;99.90;;;;;;5084169;28;20047;-90
2023/10/30 04:53:06;;;;;;;10.02;2.13;;;10.40;99.90;;;;;;5100333;28;20043;-90
2023/10/30 04:55:34;;;;;;;6.75;1.67;;;10.40;99.90;;;;;;5083829;28;20036;-89
2023/10/30 04:58:00;;;;;;;6.15;1.88;;;10.30;99.90;;;;;;5083460;28;20056;-88
2023/10/30 05:00:25;;;;;;;8.75;2.15;;;10.30;99.90;;;;;;5099813;28;20052;-90
2023/10/30 05:02:51;;;;;;;8.52;2.88;;;10.30;99.90;;;;;;5084594;28;20050;-89
2023/10/30 05:05:17;;;;;;;10.00;1.95;;;10.30;99.90;;;;;;5099533;28;20055;-89
2023/10/30 05:07:44;;;;;;;8.13;2.15;;;10.30;99.90;;;;;;5083673;28;20613;-89
2023/10/30 05:10:11;;;;;;;11.43;2.53;;;10.30;99.90;;;;;;5079674;28;20040;-90
2023/10/30 05:12:37;;;;;;;8.77;2.38;;;10.30;99.90;;;;;;5084006;28;20546;-89
2023/10/30 05:15:05;;;;;;;7.32;1.83;;;10.30;99.90;;;;;;5084473;28;20540;-88
2023/10/30 05:17:30;;;;;;;9.40;2.00;;;10.30;99.90;;;;;;5083777;28;20476;-88
2023/10/30 05:19:56;;;;;;;6.28;2.10;;;10.30;99.90;;;;;;5084949;28;20052;-90
2023/10/30 05:22:22;;;;;;;9.65;2.05;;;10.30;99.90;;;;;;5099901;28;20047;-90
2023/10/30 05:24:48;;;;;;;11.30;1.95;;;10.30;99.90;;;;;;5067485;28;20111;-91
2023/10/30 05:27:13;;;;;;;8.55;2.58;;;10.30;99.90;;;;;;5100514;28;20211;-89
2023/10/30 05:29:39;;;;;;;4.93;1.48;;;10.30;99.90;;;;;;5101289;28;20040;-90
2023/10/30 05:32:06;;;;;;;9.85;1.88;;;10.30;99.90;;;;;;5084114;28;20055;-89
2023/10/30 05:34:36;;;;;;;7.03;1.95;;;10.30;99.90;;;;;;5083452;28;20554;-89
2023/10/30 05:37:06;;;;;;;8.00;3.05;;;10.30;99.90;;;;;;5101195;28;20067;-90
2023/10/30 05:39:31;;;;;;;9.45;2.17;;;10.20;99.90;;;;;;5100012;28;20056;-90
2023/10/30 05:41:58;;;;;;;8.98;2.08;;;10.20;99.90;;;;;;5084104;28;20142;-90
2023/10/30 05:44:24;;;;;;;10.52;2.20;;;10.20;99.90;;;;;;5083318;28;20052;-90
2023/10/30 05:46:50;;;;;;;6.47;2.05;;;10.10;99.90;;;;;;5083921;28;20098;-90
2023/10/30 05:49:16;;;;;;;8.80;1.50;;;10.20;99.90;;;;;;5100779;28;20502;-90
2023/10/30 05:51:42;;;;;;;6.55;1.90;;;10.20;99.90;;;;;;5083484;28;20432;-90
2023/10/30 05:54:07;;;;;;;6.57;2.30;;;10.10;99.90;;;;;;5083708;28;20075;-89
2023/10/30 05:56:33;;;;;;;10.88;2.40;;;10.10;99.90;;;;;;5099527;28;20069;-89
2023/10/30 05:58:59;;;;;;;9.43;1.88;;;10.20;99.90;;;;;;5083966;28;20059;-89
2023/10/30 06:01:24;;;;;;;10.70;2.83;;;10.20;99.90;;;;;;5082699;28;20101;-89
2023/10/30 06:03:50;;;;;;;8.48;2.17;;;10.20;99.90;;;;;;5083206;28;20047;-91
2023/10/30 06:06:16;;;;;;;7.88;2.08;;;10.20;99.90;;;;;;5083028;28;20652;-90
2023/10/30 06:08:41;;;;;;;9.07;2.20;;;10.20;99.90;;;;;;5082203;28;20063;-89
2023/10/30 06:11:07;;;;;;;12.48;2.55;;;10.20;99.90;;;;;;5100187;28;20066;-91
2023/10/30 06:13:33;;;;;;;6.65;2.50;;;10.20;99.90;;;;;;5065750;28;20051;-90
2023/10/30 06:15:58;;;;;;;13.13;2.55;;;10.20;99.90;;;;;;5067251;28;20130;-90
2023/10/30 06:18:25;;;;;;;6.78;2.45;;;10.20;99.90;;;;;;5082500;28;20058;-90
2023/10/30 06:20:50;;;;;;;16.67;2.20;;;10.20;99.90;;;;;;5067973;28;20094;-90
2023/10/30 06:23:16;;;;;;;8.82;2.00;;;10.20;99.90;;;;;;5068062;28;20040;-90
2023/10/30 06:25:44;;;;;;;11.70;2.10;;;10.20;99.90;;;;;;5083276;28;20072;-90
2023/10/30 06:28:12;;;;;;;12.88;2.80;;;10.20;99.90;;;;;;5082558;28;20059;-87
2023/10/30 06:30:38;;;;;;;12.95;1.88;;;10.20;99.90;;;;;;5064057;28;20064;-86
2023/10/30 06:33:04;;;;;;;12.07;2.20;;;10.30;99.90;;;;;;5082552;28;20162;-86
2023/10/30 06:35:29;;;;;;;10.45;1.88;;;10.30;99.90;;;;;;5064510;28;20044;-87
2023/10/30 06:37:55;;;;;;;8.98;2.83;;;10.30;99.90;;;;;;5098143;28;20081;-87
2023/10/30 06:40:21;;;;;;;8.85;2.17;;;10.30;99.90;;;;;;5098184;28;20048;-87
2023/10/30 06:42:46;;;;;;;5.47;2.00;;;10.20;99.90;;;;;;5098468;28;20056;-87
2023/10/30 06:45:12;;;;;;;9.13;1.92;;;10.20;99.90;;;;;;5099180;28;20052;-89
2023/10/30 06:47:38;;;;;;;7.32;1.92;;;10.30;99.90;;;;;;5080698;28;20465;-88
2023/10/30 06:50:04;;;;;;;8.52;1.67;;;10.30;99.90;;;;;;5099716;28;20388;-88
2023/10/30 06:52:29;;;;;;;6.03;2.10;;;10.30;99.90;;;;;;5080771;28;20087;-88
2023/10/30 06:54:55;;;;;;;7.90;2.08;;;10.30;99.90;;;;;;5099047;28;20052;-86
2023/10/30 06:57:21;;;;;;;9.48;2.10;;;10.30;99.90;;;;;;5098108;28;20051;-90
2023/10/30 06:59:49;;;;;;;9.40;1.73;;;10.30;99.90;;;;;;5064854;28;20051;-87
2023/10/30 07:02:14;;;;;;;5.50;1.83;;;10.30;99.90;;;;;;5098220;28;20131;-85
2023/10/30 07:04:40;;;;;;;10.60;1.95;;;10.30;99.90;;;;;;5083191;28;20109;-88
2023/10/30 07:07:06;;;;;;;10.85;2.25;;;10.30;99.90;;;;;;5084473;28;20040;-88
2023/10/30 07:09:31;;;;;;;7.68;2.05;;;10.30;99.90;;;;;;5113738;28;20063;-87
2023/10/30 07:11:57;;;;;;;10.02;2.42;;;10.40;99.90;;;;;;5104663;28;20117;-87
2023/10/30 07:14:23;;;;;;;9.77;2.20;;;10.40;99.90;;;;;;5103256;28;20047;-87
2023/10/30 07:16:48;;;;;;;12.73;2.60;;;10.40;99.90;;;;;;5087721;28;20051;-88
2023/10/30 07:19:15;;;;;;;7.30;2.60;;;10.40;99.90;;;;;;5087526;28;20054;-91
2023/10/30 07:21:41;;;;;;;5.05;1.60;;;10.40;99.90;;;;;;5102336;28;20066;-92
2023/10/30 07:24:07;;;;;;;7.95;2.15;;;10.40;99.90;;;;;;5086741;28;20060;-90
2023/10/30 07:26:33;;;;;;;7.53;2.28;;;10.50;99.90;;;;;;5084881;28;20083;-92
2023/10/30 07:28:58;;;;;;;6.55;1.90;;;10.50;99.90;;;;;;5103222;28;20074;-92
2023/10/30 07:31:24;;;;;;;9.43;2.30;;;10.50;99.90;;;;;;5085515;28;20135;-91
2023/10/30 07:33:50;;;;;;;6.47;1.77;;;10.50;99.90;;;;;;5085667;28;20455;-92
2023/10/30 07:36:16;;;;;;;9.13;3.35;;;10.50;99.90;;;;;;5084993;28;20107;-89
2023/10/30 07:38:41;;;;;;;6.97;2.30;;;10.60;99.90;;;;;;5085240;28;20047;-87
2023/10/30 07:41:08;;;;;;;5.93;1.90;;;10.50;99.90;;;;;;5103180;28;20048;-93
2023/10/30 07:43:34;;;;;;;9.80;2.38;;;10.60;99.90;;;;;;5085331;28;20123;-93
2023/10/30 07:46:00;;;;;;;17.27;2.50;;;10.70;99.90;;;;;;5086612;28;20048;-93
2023/10/30 07:48:28;;;;;;;8.98;2.15;;;10.60;99.90;;;;;;5085194;28;20152;-93
2023/10/30 07:50:54;;;;;;;9.70;2.83;;;10.70;99.90;;;;;;5086355;28;20565;-94
2023/10/30 07:53:20;;;;;;;5.80;2.13;;;10.70;99.90;;;;;;5085797;28;20322;-94
2023/10/30 07:55:46;;;;;;;7.43;1.98;;;10.70;99.90;;;;;;5086087;28;20075;-93
2023/10/30 07:58:12;;;;;;;11.63;2.20;;;10.70;99.90;;;;;;5102739;28;20075;-90
2023/10/30 08:00:39;;;;;;;8.68;2.13;;;10.70;99.90;;;;;;5083885;28;20086;-90
2023/10/30 08:03:05;;;;;;;5.25;1.77;;;10.70;99.90;;;;;;5102033;28;20052;-91
2023/10/30 08:05:32;;;;;;;11.65;2.40;;;10.80;99.90;;;;;;5084360;28;20054;-92
2023/10/30 08:07:58;;;;;;;10.65;2.10;;;10.80;99.90;;;;;;5085656;28;20062;-90
2023/10/30 08:10:24;;;;;;;9.57;2.90;;;10.90;99.90;;;;;;5081238;28;20059;-91
2023/10/30 08:12:49;;;;;;;10.57;2.40;;;10.90;99.90;;;;;;5081644;28;20040;-90
2023/10/30 08:15:15;;;;;;;14.35;2.30;;;10.90;99.90;;;;;;5081321;28;20039;-90
2023/10/30 08:17:41;;;;;;;6.00;1.80;;;11.00;99.90;;;;;;5080178;28;20059;-92
2023/10/30 08:20:09;;;;;;;11.48;2.03;;;11.00;99.90;;;;;;5082690;28;20048;-91
2023/10/30 08:22:35;;;;;;;10.52;2.47;;;11.00;99.90;;;;;;5098188;28;20048;-92
2023/10/30 08:25:02;;;;;;;8.10;2.35;;;11.00;99.90;;;;;;5082862;28;20054;-92
2023/10/30 08:27:28;;;;;;;13.35;2.35;;;11.10;99.90;;;;;;5098307;28;20052;-92
2023/10/30 08:29:54;;;;;;;11.65;2.25;;;11.10;99.90;;;;;;5080627;28;20051;-93
2023/10/30 08:32:20;;;;;;;10.13;2.03;;;11.20;99.90;;;;;;5081445;28;20055;-93
2023/10/30 08:34:46;;;;;;;10.30;2.67;;;11.20;99.90;;;;;;5070426;28;20045;-92
2023/10/30 08:37:11;;;;;;;12.50;2.50;;;11.20;99.90;;;;;;5062935;28;20041;-93
2023/10/30 08:39:37;;;;;;;7.40;2.03;;;11.20;99.90;;;;;;5075125;28;20665;-92
2023/10/30 08:42:04;;;;;;;11.52;3.10;;;11.30;99.90;;;;;;5082722;28;20059;-92
2023/10/30 08:44:31;;;;;;;17.77;2.58;;;11.30;99.90;;;;;;5083457;28;20059;-93
2023/10/30 08:46:57;;;;;;;12.82;2.08;;;11.40;99.90;;;;;;5092547;28;20075;-80
2023/10/30 08:49:23;;;;;;;6.28;1.70;;;11.40;99.90;;;;;;5100814;28;20511;-79
2023/10/30 08:51:49;;;;;;;15.02;2.03;;;11.40;99.90;;;;;;5100077;28;20044;-79
2023/10/30 08:54:15;;;;;;;9.00;2.10;;;11.50;99.90;;;;;;5101230;28;20059;-89
2023/10/30 08:56:42;;;;;;;15.68;2.28;;;11.50;99.90;;;;;;5099603;28;20040;-79
2023/10/30 08:59:08;;;;;;;11.23;2.08;;;11.60;99.90;;;;;;5100899;28;20515;-81
2023/10/30 09:01:34;;;;;;;10.07;2.28;;;11.70;99.90;;;;;;5083005;28;20048;-88
2023/10/30 09:04:00;;;;;;;12.02;2.33;;;11.60;99.90;;;;;;5100143;28;20116;-79
2023/10/30 09:06:28;;;;;;;9.77;2.20;;;11.70;99.90;;;;;;5083668;28;20040;-80
2023/10/30 09:08:54;;;;;;;10.88;1.83;;;11.70;99.90;;;;;;5082536;28;20403;-79
2023/10/30 09:11:20;;;;;;;5.70;2.15;;;11.80;99.90;;;;;;5091290;28;20052;-80
2023/10/30 09:13:46;;;;;;;10.63;2.38;;;11.80;99.90;;;;;;5093413;28;20056;-79
2023/10/30 09:16:12;;;;;;;10.57;2.80;;;11.80;99.90;;;;;;5097828;28;20059;-80
2023/10/30 09:18:38;;;;;;;17.27;2.20;;;12.00;99.90;;;;;;5097271;28;20056;-79
2023/10/30 09:21:04;;;;;;;11.68;2.72;;;12.10;99.90;;;;;;5078905;28;20059;-80
2023/10/30 09:23:30;;;;;;;12.15;2.17;;;12.00;99.90;;;;;;5073665;28;20059;-80
2023/10/30 09:25:55;;;;;;;14.88;2.40;;;12.10;99.90;;;;;;5096731;28;20052;-82
2023/10/30 09:28:21;;;;;;;7.13;2.08;;;12.10;99.90;;;;;;5083328;28;20052;-85
2023/10/30 09:30:47;;;;;;;7.53;2.10;;;12.10;99.90;;;;;;5098832;28;20598;-86
2023/10/30 09:33:13;;;;;;;10.63;2.63;;;12.10;99.90;;;;;;5100627;28;20101;-88
2023/10/30 09:35:38;;;;;;;9.18;2.35;;;12.10;99.90;;;;;;5099591;28;20381;-92
2023/10/30 09:38:05;;;;;;;17.25;2.97;;;12.10;99.90;;;;;;5100683;28;20048;-89
2023/10/30 09:40:31;;;;;;;14.00;2.17;;;12.10;99.90;;;;;;5100069;28;20083;-89
2023/10/30 09:42:58;;;;;;;7.88;2.45;;;12.10;99.90;;;;;;5081822;28;20101;-89
2023/10/30 09:45:25;;;;;;;9.27;1.70;;;12.20;99.90;;;;;;5066580;28;20117;-90
2023/10/30 09:47:55;;;;;;;8.95;2.38;;;12.20;99.90;;;;;;5081911;28;20356;-90
2023/10/30 09:50:22;;;;;;;8.40;2.28;;;12.20;99.90;;;;;;5083107;28;20048;-90
2023/10/30 09:52:52;;;;;;;11.30;2.88;;;12.20;99.90;;;;;;5099034;28;20056;-89
2023/10/30 09:55:23;;;;;;;14.63;2.83;;;12.20;99.90;;;;;;5082761;28;20064;-89
2023/10/30 09:57:51;;;;;;;5.63;1.95;;;12.20;99.90;;;;;;5082348;28;20048;-89
2023/10/30 10:00:17;;;;;;;15.95;3.90;;;12.20;99.90;;;;;;5081587;28;20048;-88
2023/10/30 10:02:44;;;;;;;13.50;2.72;;;12.20;99.90;;;;;;5099827;28;20135;-89
2023/10/30 10:05:12;;;;;;;11.88;1.77;;;12.20;99.90;;;;;;5082140;28;20032;-89
2023/10/30 10:07:38;;;;;;;10.63;2.45;;;12.30;99.90;;;;;;5100211;28;20052;-89
2023/10/30 10:10:06;;;;;;;6.45;2.20;;;12.20;99.90;;;;;;5081773;28;20048;-89
2023/10/30 10:12:36;;;;;;;6.70;2.05;;;12.30;99.90;;;;;;5082805;28;20048;-87
2023/10/30 10:15:06;;;;;;;11.68;2.10;;;12.40;99.90;;;;;;5082376;28;20051;-89
2023/10/30 10:17:42;;;;;;;8.98;2.13;;;12.40;99.90;;;;;;5082002;28;20135;-89
2023/10/30 10:20:09;;;;;;;10.15;2.30;;;12.50;99.90;;;;;;5082995;28;20063;-88
2023/10/30 10:22:35;;;;;;;12.70;2.90;;;12.50;99.90;;;;;;5081784;28;20138;-89
2023/10/30 10:25:02;;;;;;;14.95;2.35;;;12.60;99.90;;;;;;5099641;28;20066;-90
2023/10/30 10:27:28;;;;;;;7.95;2.15;;;12.70;99.90;;;;;;5081868;28;20143;-90
2023/10/30 10:29:55;;;;;;;10.93;1.90;;;12.80;99.90;;;;;;5081403;28;20112;-89
2023/10/30 10:32:26;;;;;;;17.75;2.65;;;12.80;99.90;;;;;;5082748;28;20052;-87
2023/10/30 10:35:02;;;;;;;16.02;2.13;;;12.80;99.90;;;;;;5080925;28;20056;-89
2023/10/30 10:37:29;;;;;;;11.13;1.98;;;12.80;99.90;;;;;;5099276;28;20090;-89
2023/10/30 10:39:55;;;;;;;14.35;2.30;;;12.80;99.90;;;;;;5081044;28;20052;-86
2023/10/30 10:42:23;;;;;;;10.60;2.40;;;12.90;99.90;;;;;;5098520;28;20055;-87
2023/10/30 10:44:51;;;;;;;12.32;2.45;;;12.90;99.90;;;;;;5080918;28;20044;-88
2023/10/30 10:47:18;;;;;;;10.60;3.30;;;12.90;99.90;;;;;;5081290;28;20055;-87
2023/10/30 10:49:44;;;;;;;9.10;2.17;;;13.00;99.90;;;;;;5098795;28;20064;-88
2023/10/30 10:52:12;;;;;;;12.32;2.42;;;13.00;99.90;;;;;;5080510;28;20048;-88
2023/10/30 10:55:02;;;;;;;17.50;3.25;;;13.00;99.90;;;;;;5081777;28;20056;-93
2023/10/30 10:57:38;;;;;;;10.85;2.50;;;13.10;99.90;;;;;;5101031;28;20044;-90
2023/10/30 11:00:07;;;;;;;14.02;2.28;;;13.00;99.90;;;;;;5080444;28;20120;-87
2023/10/30 11:02:37;;;;;;;12.45;2.00;;;13.00;99.90;;;;;;5099265;28;20068;-88
2023/10/30 11:05:05;;;;;;;7.50;2.47;;;13.00;99.90;;;;;;5081032;28;20048;-87
2023/10/30 11:07:48;;;;;;;13.35;2.47;;;13.00;99.90;;;;;;5098362;28;20105;-89
2023/10/30 11:10:27;;;;;;;14.77;2.15;;;13.10;99.90;;;;;;5081664;28;20048;-90
2023/10/30 11:13:10;;;;;;;9.88;2.05;;;13.10;99.90;;;;;;5080581;28;20059;-89
2023/10/30 11:15:59;;;;;;;9.60;2.00;;;13.10;99.90;;;;;;5082039;28;20068;-89
2023/10/30 11:18:27;;;;;;;9.25;1.98;;;13.00;99.90;;;;;;5079693;28;20139;-89
2023/10/30 11:21:24;;;;;;;12.95;2.00;;;13.10;99.90;;;;;;5081255;28;20410;-88
2023/10/30 11:23:58;;;;;;;13.10;2.10;;;13.10;99.90;;;;;;5085798;28;20052;-87
2023/10/30 11:26:30;;;;;;;12.40;2.47;;;13.10;99.90;;;;;;5080289;28;20060;-87
2023/10/30 11:29:00;;;;;;;8.88;2.03;;;13.00;99.90;;;;;;5097492;28;20055;-87
2023/10/30 11:31:49;;;;;;;7.57;2.85;;;13.10;99.90;;;;;;5079700;28;20056;-79
2023/10/30 11:34:16;;;;;;;12.30;2.63;;;13.20;99.90;;;;;;5094912;28;20079;-78
2023/10/30 11:36:45;;;;;;;13.77;2.50;;;13.20;99.90;;;;;;5097321;28;20051;-80
2023/10/30 11:39:11;;;;;;;8.35;1.88;;;13.20;99.90;;;;;;5095750;28;20081;-80
2023/10/30 11:41:49;;;;;;;11.52;2.55;;;13.30;99.90;;;;;;5097433;28;20078;-89
2023/10/30 11:44:16;;;;;;;15.48;1.95;;;13.30;99.90;;;;;;5072958;28;20066;-93
2023/10/30 11:46:47;;;;;;;11.55;2.17;;;13.40;99.90;;;;;;5079250;28;20044;-79
2023/10/30 11:49:17;;;;;;;9.35;2.22;;;13.40;99.90;;;;;;5077620;28;20116;-80
2023/10/30 11:51:49;;;;;;;9.77;2.17;;;13.40;99.90;;;;;;5096038;28;20832;-87
2023/10/30 11:54:33;;;;;;;8.70;2.07;;;13.40;99.90;;;;;;5095615;28;20056;-87
2023/10/30 11:57:01;;;;;;;10.95;2.67;;;13.40;99.90;;;;;;5092216;28;20063;-87
2023/10/30 11:59:28;;;;;;;6.68;2.58;;;13.50;99.90;;;;;;5079709;28;20527;-87
2023/10/30 12:01:56;;;;;;;14.63;2.53;;;13.50;99.90;;;;;;5096036;28;20052;-87
2023/10/30 12:04:23;;;;;;;12.70;2.88;;;13.50;99.90;;;;;;5095365;28;20627;-86
2023/10/30 12:06:49;;;;;;;12.82;2.53;;;13.50;99.90;;;;;;5080272;28;20056;-87
2023/10/30 12:09:18;;;;;;;8.35;2.17;;;13.60;99.90;;;;;;5095358;28;20135;-86
2023/10/30 12:11:44;;;;;;;12.18;2.90;;;13.60;99.90;;;;;;5096383;28;20075;-86
2023/10/30 12:14:15;;;;;;;9.23;1.88;;;13.60;99.90;;;;;;5078735;28;20047;-85
2023/10/30 12:16:51;;;;;;;11.07;1.70;;;13.60;99.90;;;;;;5079354;28;20056;-86
2023/10/30 12:19:21;;;;;;;7.50;2.08;;;13.70;99.90;;;;;;5079319;28;20080;-86
2023/10/30 12:21:48;;;;;;;13.95;2.65;;;13.70;99.90;;;;;;5078582;28;20103;-86
2023/10/30 12:24:22;;;;;;;14.90;3.13;;;13.70;99.90;;;;;;5079987;28;20075;-86
2023/10/30 12:26:48;;;;;;;16.92;2.58;;;13.70;99.90;;;;;;5095412;28;20062;-86
2023/10/30 12:29:24;;;;;;;13.35;2.78;;;13.80;99.90;;;;;;5079349;28;20059;-86
2023/10/30 12:32:11;;;;;;;10.80;2.88;;;13.80;99.90;;;;;;5096113;28;20062;-86
2023/10/30 12:34:37;;;;;;;11.55;2.30;;;13.80;99.90;;;;;;5095530;28;20062;-87
2023/10/30 12:37:25;;;;;;;10.70;2.00;;;13.80;99.90;;;;;;5079775;28;20111;-86
2023/10/30 12:40:03;;;;;;;8.80;1.80;;;13.80;99.90;;;;;;5078200;28;20075;-87
2023/10/30 12:42:35;;;;;;;8.60;1.83;;;13.80;99.90;;;;;;5093712;28;20052;-86